Time;durP1;ratioP1;P1;durP2;ratioP2;P2;SDS_P1;SDS_P2;PMS_P1;PMS_P2;Temp;Humidity;BMP_temperature;BMP_pressure;BME280_temperature;BME280_humidity;BME280_pressure;Samples;Min_cycle;Max_cycle;Signal;HPM_P1;HPM_P2
2022/06/04 00:00:43;;;;;;;72.10;47.55;;;22.50;59.50;;;;;;5059410;28;20493;-66
2022/06/04 00:03:09;;;;;;;71.50;48.63;;;22.50;59.50;;;;;;5064002;28;20518;-66
2022/06/04 00:05:37;;;;;;;69.47;47.05;;;22.50;59.50;;;;;;5065930;28;20040;-65
2022/06/04 00:08:03;;;;;;;68.47;46.72;;;22.50;59.50;;;;;;5065126;28;20107;-66
2022/06/04 00:16:02;;;;;;;67.73;46.43;;;22.50;59.60;;;;;;5064280;28;20513;-66
2022/06/04 00:18:28;;;;;;;67.50;46.42;;;22.50;59.60;;;;;;5061617;28;20036;-66
2022/06/04 00:20:54;;;;;;;74.25;48.17;;;22.50;59.60;;;;;;5065014;28;20029;-66
2022/06/04 00:23:19;;;;;;;68.72;46.22;;;22.50;59.60;;;;;;5064465;28;20462;-65
2022/06/04 00:25:47;;;;;;;68.75;46.53;;;22.50;59.60;;;;;;5065241;28;20078;-66
2022/06/04 00:28:13;;;;;;;67.13;45.97;;;22.50;59.60;;;;;;5067295;28;20079;-65
2022/06/04 00:30:39;;;;;;;64.57;45.67;;;22.50;59.60;;;;;;5061600;28;20060;-66
2022/06/04 00:33:04;;;;;;;66.78;45.90;;;22.50;59.60;;;;;;5065336;28;20576;-66
2022/06/04 00:35:30;;;;;;;68.40;45.53;;;22.50;59.70;;;;;;5065523;28;20405;-66
2022/06/04 00:37:56;;;;;;;66.00;44.83;;;22.40;59.50;;;;;;5064647;28;20107;-66
2022/06/04 00:40:30;;;;;;;68.18;45.85;;;22.40;59.50;;;;;;5063019;28;20086;-65
2022/06/04 00:42:56;;;;;;;65.25;45.80;;;22.40;59.50;;;;;;5065310;28;20021;-66
2022/06/04 00:45:21;;;;;;;65.82;45.47;;;22.40;59.50;;;;;;5065295;28;20486;-66
2022/06/04 00:47:50;;;;;;;65.90;45.92;;;22.40;59.50;;;;;;5061801;28;20032;-66
2022/06/04 00:50:17;;;;;;;64.10;44.70;;;22.40;59.50;;;;;;5065362;28;20040;-65
2022/06/04 00:52:44;;;;;;;65.00;44.78;;;22.40;59.50;;;;;;5065508;28;21059;-66
2022/06/04 00:55:09;;;;;;;64.80;45.75;;;22.40;59.50;;;;;;5064018;28;20023;-65
2022/06/04 00:57:53;;;;;;;65.68;45.70;;;22.40;59.50;;;;;;5062667;28;20028;-65
2022/06/04 01:00:24;;;;;;;65.13;44.55;;;22.40;59.50;;;;;;5064312;28;20028;-65
2022/06/04 01:03:21;;;;;;;65.15;43.85;;;22.40;60.10;;;;;;5046926;28;20024;-66
2022/06/04 01:05:54;;;;;;;60.97;42.47;;;22.40;59.50;;;;;;5060482;28;20102;-65
2022/06/04 01:08:28;;;;;;;61.65;43.47;;;22.40;59.50;;;;;;5063553;28;20520;-65
2022/06/04 01:11:00;;;;;;;63.22;44.17;;;22.40;59.50;;;;;;5062848;28;20029;-66
2022/06/04 01:13:32;;;;;;;63.53;42.88;;;22.30;59.50;;;;;;5065284;28;20036;-66
2022/06/04 01:16:13;;;;;;;62.45;43.42;;;22.40;59.60;;;;;;5061959;28;20028;-66
2022/06/04 01:19:04;;;;;;;61.30;42.97;;;22.30;59.50;;;;;;5064322;28;20048;-65
2022/06/04 01:21:36;;;;;;;59.08;42.60;;;22.30;59.50;;;;;;5061627;28;20040;-65
2022/06/04 01:24:31;;;;;;;60.38;42.97;;;22.30;59.50;;;;;;5064498;28;20028;-66
2022/06/04 01:27:00;;;;;;;63.13;42.05;;;22.30;59.50;;;;;;5060545;28;20190;-65
2022/06/04 01:29:38;;;;;;;58.92;40.47;;;22.30;59.50;;;;;;5061697;28;20032;-65
2022/06/04 01:32:08;;;;;;;58.97;40.45;;;22.30;59.50;;;;;;5049028;28;20114;-65
2022/06/04 01:34:44;;;;;;;61.42;42.47;;;22.30;59.50;;;;;;5060684;28;20028;-65
2022/06/04 01:37:15;;;;;;;59.22;40.92;;;22.30;59.50;;;;;;5048231;28;20017;-66
2022/06/04 01:42:27;;;;;;;59.38;41.60;;;22.30;59.50;;;;;;5061212;28;20046;-65
2022/06/04 01:44:52;;;;;;;60.40;41.35;;;22.30;59.50;;;;;;5062214;28;20024;-64
2022/06/04 01:47:18;;;;;;;55.58;40.67;;;22.30;59.40;;;;;;5063323;28;20033;-66
2022/06/04 01:49:51;;;;;;;56.67;39.58;;;22.30;59.50;;;;;;5063667;28;20045;-65
2022/06/04 01:52:25;;;;;;;59.95;40.35;;;22.30;59.40;;;;;;5064356;28;20067;-66
2022/06/04 01:54:53;;;;;;;56.07;40.43;;;22.30;59.50;;;;;;5060897;28;20396;-66
2022/06/04 01:57:38;;;;;;;57.85;40.72;;;22.30;59.40;;;;;;5079662;28;20063;-66
2022/06/04 02:00:24;;;;;;;57.83;40.90;;;22.30;59.50;;;;;;5060844;28;20039;-66
2022/06/04 02:02:57;;;;;;;58.10;40.30;;;22.20;59.40;;;;;;5042226;28;20528;-66
2022/06/04 02:05:25;;;;;;;55.72;39.33;;;22.20;59.40;;;;;;5062770;28;20452;-65
2022/06/04 02:07:52;;;;;;;54.30;38.67;;;22.20;59.40;;;;;;5061277;28;20108;-66
2022/06/04 02:11:00;;;;;;;57.20;39.63;;;22.20;59.40;;;;;;5059559;28;20114;-65
2022/06/04 02:13:26;;;;;;;55.10;39.45;;;22.20;59.40;;;;;;5043371;28;20405;-65
2022/06/04 02:15:57;;;;;;;54.92;38.88;;;22.20;59.40;;;;;;5043796;28;20195;-65
2022/06/04 02:18:23;;;;;;;56.38;40.33;;;22.20;59.40;;;;;;5008653;28;20037;-66
2022/06/04 02:20:49;;;;;;;55.65;39.47;;;22.20;59.40;;;;;;5039211;28;20083;-66
2022/06/04 02:23:14;;;;;;;54.88;39.53;;;22.20;59.40;;;;;;5040236;28;20041;-65
2022/06/04 02:25:40;;;;;;;56.72;39.58;;;22.20;59.40;;;;;;5042767;28;20037;-65
2022/06/04 02:28:06;;;;;;;55.95;39.10;;;22.20;59.40;;;;;;5042325;28;20040;-66
2022/06/04 02:30:57;;;;;;;55.03;38.33;;;22.20;59.40;;;;;;5039439;28;20048;-66
2022/06/04 02:34:04;;;;;;;52.85;37.90;;;22.20;59.40;;;;;;5026394;28;20124;-66
2022/06/04 02:36:50;;;;;;;55.42;38.22;;;22.10;59.30;;;;;;4999367;28;20512;-66
2022/06/04 02:39:33;;;;;;;53.97;37.65;;;22.20;59.40;;;;;;5000430;28;20537;-66
2022/06/04 02:41:59;;;;;;;51.60;36.67;;;22.20;59.40;;;;;;4999550;28;20600;-65
2022/06/04 02:44:39;;;;;;;52.15;36.95;;;22.10;59.30;;;;;;5001463;28;20494;-66
2022/06/04 02:47:07;;;;;;;56.25;37.97;;;22.10;59.30;;;;;;5006869;28;20437;-66
2022/06/04 02:49:39;;;;;;;51.60;36.80;;;22.10;59.40;;;;;;5006512;28;20053;-64
2022/06/04 02:52:06;;;;;;;52.80;37.95;;;22.10;59.40;;;;;;5005783;28;21134;-66
2022/06/04 02:54:50;;;;;;;50.58;37.28;;;22.10;59.30;;;;;;5003949;28;20045;-66
2022/06/04 02:57:16;;;;;;;55.65;38.42;;;22.10;59.40;;;;;;5006096;28;20065;-65
2022/06/04 02:59:42;;;;;;;51.38;36.92;;;22.10;59.50;;;;;;5022309;28;20053;-65
2022/06/04 03:02:08;;;;;;;53.17;37.28;;;22.10;59.40;;;;;;5007896;28;20053;-66
2022/06/04 03:04:41;;;;;;;53.70;36.58;;;22.10;59.40;;;;;;5010048;28;20036;-66
2022/06/04 03:07:07;;;;;;;54.80;38.03;;;22.10;59.40;;;;;;5028677;28;20458;-65
2022/06/04 03:09:33;;;;;;;50.80;37.05;;;22.10;59.40;;;;;;5061164;28;20033;-65
2022/06/04 03:11:58;;;;;;;55.05;36.55;;;22.00;59.30;;;;;;5064228;28;20032;-66
2022/06/04 03:14:24;;;;;;;51.53;36.53;;;22.10;59.40;;;;;;5061045;28;20326;-66
2022/06/04 03:16:50;;;;;;;53.17;36.22;;;22.10;59.50;;;;;;5065604;28;20032;-66
2022/06/04 03:19:15;;;;;;;50.78;36.90;;;22.10;59.40;;;;;;5067894;28;20029;-66
2022/06/04 03:21:42;;;;;;;47.35;35.50;;;22.10;59.40;;;;;;5067076;28;20028;-66
2022/06/04 03:24:08;;;;;;;50.42;35.85;;;22.10;59.40;;;;;;5065478;28;20052;-66
2022/06/04 03:26:34;;;;;;;52.58;36.58;;;22.00;59.40;;;;;;5065800;28;20043;-66
2022/06/04 03:29:00;;;;;;;51.92;37.20;;;22.10;59.40;;;;;;5064386;28;20028;-66
2022/06/04 03:31:26;;;;;;;50.85;36.25;;;22.00;59.40;;;;;;5065445;28;20028;-65
2022/06/04 03:33:53;;;;;;;50.97;36.58;;;22.00;59.40;;;;;;5065815;28;20497;-66
2022/06/04 03:36:18;;;;;;;48.75;34.65;;;22.00;59.40;;;;;;5068099;28;20504;-65
2022/06/04 03:38:44;;;;;;;49.45;35.53;;;22.00;59.40;;;;;;5065726;28;20021;-66
2022/06/04 03:41:10;;;;;;;47.42;34.50;;;22.00;59.40;;;;;;5066419;28;20036;-66
2022/06/04 03:43:36;;;;;;;48.10;34.35;;;22.00;59.40;;;;;;5068789;28;20023;-65
2022/06/04 03:46:01;;;;;;;50.45;35.88;;;22.00;59.40;;;;;;5069017;28;20024;-65
2022/06/04 03:48:27;;;;;;;48.28;33.08;;;22.00;59.50;;;;;;5065907;28;20040;-66
2022/06/04 03:50:53;;;;;;;45.08;33.10;;;22.00;59.50;;;;;;5062254;28;20087;-64
2022/06/04 03:53:18;;;;;;;46.13;32.25;;;22.00;59.60;;;;;;5063767;28;20417;-65
2022/06/04 03:55:44;;;;;;;46.75;32.22;;;22.00;59.50;;;;;;5065227;28;20039;-65
2022/06/04 03:58:10;;;;;;;43.17;31.77;;;22.10;59.60;;;;;;5068758;28;20366;-66
2022/06/04 04:00:39;;;;;;;49.35;32.10;;;22.10;59.60;;;;;;5063071;28;20026;-65
2022/06/04 04:03:10;;;;;;;48.08;31.20;;;22.10;59.60;;;;;;5067494;28;20032;-65
2022/06/04 04:05:50;;;;;;;46.28;31.88;;;22.00;59.50;;;;;;5067214;28;20048;-65
2022/06/04 04:08:16;;;;;;;46.22;31.30;;;22.00;59.50;;;;;;5066827;28;20031;-65
2022/06/04 04:10:42;;;;;;;45.53;32.20;;;22.00;59.60;;;;;;5064097;28;20033;-65
2022/06/04 04:13:08;;;;;;;44.55;30.33;;;22.00;59.60;;;;;;5067583;28;20047;-65
2022/06/04 04:15:34;;;;;;;46.05;31.85;;;22.00;59.60;;;;;;5065941;28;20930;-65
2022/06/04 04:18:01;;;;;;;44.13;31.02;;;22.00;60.70;;;;;;5066005;28;20097;-66
2022/06/04 04:20:45;;;;;;;43.45;30.35;;;22.00;59.70;;;;;;5065249;28;20123;-65
2022/06/04 04:23:11;;;;;;;42.83;30.73;;;22.00;59.70;;;;;;5063986;28;20033;-66
2022/06/04 04:25:37;;;;;;;43.65;30.90;;;22.00;60.80;;;;;;5067949;28;20079;-66
2022/06/04 04:28:04;;;;;;;46.25;30.55;;;22.10;59.80;;;;;;5066810;28;20501;-66
2022/06/04 04:30:32;;;;;;;46.00;30.80;;;22.00;59.70;;;;;;5067404;28;20075;-65
2022/06/04 04:32:59;;;;;;;44.42;30.27;;;22.00;59.80;;;;;;5067399;28;20028;-65
2022/06/04 04:35:27;;;;;;;43.65;30.63;;;22.00;59.80;;;;;;5068427;28;20036;-66
2022/06/04 04:37:53;;;;;;;42.70;31.20;;;22.00;59.80;;;;;;5068966;28;20653;-66
2022/06/04 04:40:19;;;;;;;49.60;31.27;;;22.00;59.80;;;;;;5066390;28;20103;-65
2022/06/04 04:42:47;;;;;;;42.55;30.23;;;22.00;59.80;;;;;;5064189;28;20444;-66
2022/06/04 04:45:14;;;;;;;44.20;31.08;;;22.00;59.80;;;;;;5065914;28;20564;-66
2022/06/04 04:47:40;;;;;;;43.47;30.08;;;22.00;59.90;;;;;;5063758;28;20509;-65
2022/06/04 04:50:10;;;;;;;43.70;30.45;;;22.00;60.00;;;;;;5059630;28;20048;-66
2022/06/04 04:52:35;;;;;;;43.00;31.50;;;22.00;59.90;;;;;;5064005;28;20086;-66
2022/06/04 04:55:01;;;;;;;40.45;30.23;;;22.00;59.90;;;;;;5065365;28;20016;-66
2022/06/04 04:57:27;;;;;;;45.15;30.20;;;22.00;59.90;;;;;;5063326;28;20043;-65
2022/06/04 04:59:53;;;;;;;43.47;30.20;;;22.00;59.90;;;;;;5061483;28;20033;-67
2022/06/04 05:02:18;;;;;;;49.35;31.35;;;22.00;59.90;;;;;;5062496;28;20028;-66
2022/06/04 05:04:44;;;;;;;45.35;30.65;;;22.00;59.90;;;;;;5063632;28;20028;-67
2022/06/04 05:07:12;;;;;;;41.05;29.13;;;22.00;60.00;;;;;;5065682;28;20029;-67
2022/06/04 05:09:39;;;;;;;43.90;29.40;;;22.00;60.00;;;;;;5063961;28;20028;-66
2022/06/04 05:12:07;;;;;;;43.22;30.08;;;22.00;60.00;;;;;;5063501;28;20416;-66
2022/06/04 05:14:32;;;;;;;41.30;29.10;;;22.00;60.00;;;;;;5064427;28;20040;-67
2022/06/04 05:16:58;;;;;;;41.92;29.75;;;22.00;60.10;;;;;;5064363;28;20016;-66
2022/06/04 05:19:24;;;;;;;41.25;29.92;;;21.90;60.00;;;;;;5064206;28;20167;-67
2022/06/04 05:21:53;;;;;;;44.92;29.38;;;22.00;60.00;;;;;;5062346;28;20027;-66
2022/06/04 05:24:19;;;;;;;41.75;28.63;;;22.00;60.00;;;;;;5063503;28;20519;-66
2022/06/04 05:26:45;;;;;;;40.92;28.85;;;22.00;60.00;;;;;;5063809;28;20028;-66
2022/06/04 05:29:11;;;;;;;41.45;29.50;;;22.00;60.10;;;;;;5065555;28;20497;-66
2022/06/04 05:31:37;;;;;;;45.15;30.25;;;22.00;60.00;;;;;;5064907;28;20021;-66
2022/06/04 05:34:02;;;;;;;41.53;29.45;;;21.90;60.00;;;;;;5065845;28;20043;-67
2022/06/04 05:36:29;;;;;;;43.80;29.75;;;22.00;60.10;;;;;;5062773;28;20048;-66
2022/06/04 05:38:54;;;;;;;45.22;29.42;;;21.90;60.00;;;;;;5060926;28;20382;-66
2022/06/04 05:41:20;;;;;;;40.92;29.00;;;21.90;60.10;;;;;;5062828;28;20031;-67
2022/06/04 05:43:45;;;;;;;40.95;28.25;;;21.90;60.00;;;;;;5061128;28;20039;-66
2022/06/04 05:46:14;;;;;;;40.63;28.58;;;21.90;60.00;;;;;;5067218;28;20082;-67
2022/06/04 05:48:41;;;;;;;42.13;29.48;;;21.90;60.00;;;;;;5064133;28;20056;-66
2022/06/04 05:51:08;;;;;;;42.20;28.50;;;21.90;60.00;;;;;;5065132;28;20378;-66
2022/06/04 05:53:34;;;;;;;40.42;28.95;;;21.90;60.00;;;;;;5078596;28;20040;-65
2022/06/04 05:55:59;;;;;;;40.88;28.95;;;21.90;60.00;;;;;;5061094;28;20024;-66
2022/06/04 05:58:25;;;;;;;40.42;29.20;;;21.90;60.00;;;;;;5062138;28;21435;-66
2022/06/04 06:00:59;;;;;;;39.20;27.88;;;21.90;60.00;;;;;;5062544;28;20309;-66
2022/06/04 06:03:24;;;;;;;40.23;27.90;;;21.90;60.10;;;;;;5066801;28;20032;-66
2022/06/04 06:05:50;;;;;;;38.42;28.27;;;21.90;61.10;;;;;;5063921;28;20032;-66
2022/06/04 06:08:16;;;;;;;39.33;27.85;;;21.90;60.10;;;;;;5059405;28;20030;-66
2022/06/04 06:10:42;;;;;;;40.47;27.60;;;21.90;61.10;;;;;;5060168;28;20024;-67
2022/06/04 06:13:08;;;;;;;38.85;27.85;;;21.90;60.10;;;;;;5063339;28;20033;-66
2022/06/04 06:15:35;;;;;;;37.25;27.65;;;21.90;60.10;;;;;;5061093;28;20050;-66
2022/06/04 06:18:02;;;;;;;41.78;27.73;;;21.90;60.10;;;;;;5059984;28;20028;-67
2022/06/04 06:20:27;;;;;;;38.65;28.23;;;21.90;60.10;;;;;;5062456;28;20047;-66
2022/06/04 06:22:54;;;;;;;38.42;27.45;;;21.90;60.10;;;;;;5063045;28;20421;-66
2022/06/04 06:25:25;;;;;;;38.38;27.27;;;21.90;60.00;;;;;;5064648;28;20036;-66
2022/06/04 06:27:51;;;;;;;37.55;27.90;;;21.90;60.20;;;;;;5063643;28;20055;-66
2022/06/04 06:30:24;;;;;;;38.88;27.05;;;21.90;60.10;;;;;;5064308;28;20068;-66
2022/06/04 06:32:49;;;;;;;38.45;27.02;;;21.90;60.20;;;;;;5062757;28;20047;-67
2022/06/04 06:35:15;;;;;;;43.15;27.83;;;21.90;60.10;;;;;;5066135;28;20056;-66
2022/06/04 06:37:40;;;;;;;36.45;27.08;;;21.90;60.10;;;;;;5065609;28;20036;-66
2022/06/04 06:40:07;;;;;;;37.80;26.25;;;21.90;60.10;;;;;;5067434;28;20024;-66
2022/06/04 06:42:33;;;;;;;38.45;26.90;;;21.90;60.10;;;;;;5062878;28;20039;-66
2022/06/04 06:44:58;;;;;;;36.45;26.95;;;21.90;61.20;;;;;;5060631;28;20036;-66
2022/06/04 06:47:24;;;;;;;36.53;26.73;;;21.90;60.10;;;;;;5065595;28;20036;-66
2022/06/04 06:49:50;;;;;;;36.03;26.00;;;21.90;60.10;;;;;;5061429;28;20051;-66
2022/06/04 06:52:16;;;;;;;38.78;26.77;;;21.90;60.20;;;;;;5066701;28;20081;-67
2022/06/04 06:54:42;;;;;;;36.25;26.10;;;21.90;60.10;;;;;;5062346;28;20036;-67
2022/06/04 06:57:09;;;;;;;38.63;26.95;;;21.90;60.20;;;;;;5067831;28;20035;-67
2022/06/04 06:59:34;;;;;;;37.75;25.63;;;21.90;60.10;;;;;;5062930;28;20029;-67
2022/06/04 07:02:00;;;;;;;37.13;26.27;;;21.90;61.30;;;;;;5058505;28;20031;-67
2022/06/04 07:04:26;;;;;;;38.15;26.48;;;21.90;60.30;;;;;;5061495;28;20052;-67
2022/06/04 07:06:54;;;;;;;37.28;25.55;;;21.90;60.20;;;;;;5064615;28;20028;-67
2022/06/04 07:09:21;;;;;;;36.00;25.40;;;22.00;60.30;;;;;;5060124;28;20094;-67
2022/06/04 07:11:46;;;;;;;38.78;25.02;;;22.00;60.40;;;;;;5060508;28;20112;-67
2022/06/04 07:14:12;;;;;;;37.47;25.45;;;22.00;60.30;;;;;;5061210;28;20124;-67
2022/06/04 07:16:38;;;;;;;35.42;24.90;;;22.00;60.30;;;;;;5063425;28;20029;-67
2022/06/04 07:19:04;;;;;;;35.00;25.05;;;22.00;60.30;;;;;;5065084;28;20043;-67
2022/06/04 07:21:30;;;;;;;39.60;26.23;;;22.00;60.50;;;;;;5060879;28;20396;-67
2022/06/04 07:23:56;;;;;;;39.28;24.38;;;22.00;60.40;;;;;;5056909;28;20037;-68
2022/06/04 07:26:22;;;;;;;33.42;24.05;;;22.00;60.40;;;;;;5059413;28;20116;-67
2022/06/04 07:28:47;;;;;;;37.03;25.40;;;22.00;60.20;;;;;;5063957;28;20103;-67
2022/06/04 07:31:14;;;;;;;37.17;25.20;;;22.00;60.10;;;;;;5063438;28;20040;-67
2022/06/04 07:33:44;;;;;;;35.88;25.55;;;22.00;60.60;;;;;;5058900;28;20029;-67
2022/06/04 07:36:21;;;;;;;34.22;24.73;;;22.00;60.10;;;;;;5059466;28;20024;-68
2022/06/04 07:38:46;;;;;;;35.80;23.92;;;22.00;60.10;;;;;;5059911;28;20024;-68
2022/06/04 07:41:27;;;;;;;35.38;24.98;;;22.00;60.10;;;;;;5062296;28;20078;-68
2022/06/04 07:43:53;;;;;;;33.92;24.15;;;22.00;60.10;;;;;;5060448;28;20025;-68
2022/06/04 07:46:19;;;;;;;34.33;23.38;;;22.00;60.10;;;;;;5063454;28;20405;-67
2022/06/04 07:48:46;;;;;;;36.28;23.92;;;22.00;60.10;;;;;;5065741;28;20048;-68
2022/06/04 07:51:11;;;;;;;33.65;23.42;;;22.00;60.20;;;;;;5065357;28;20036;-67
2022/06/04 07:53:37;;;;;;;33.17;24.48;;;22.10;60.30;;;;;;5064746;28;20520;-67
2022/06/04 07:56:08;;;;;;;34.22;23.52;;;22.00;60.20;;;;;;5065102;28;20031;-68
2022/06/04 07:58:35;;;;;;;36.33;23.40;;;22.00;60.20;;;;;;5066567;28;20095;-68
2022/06/04 08:01:01;;;;;;;35.35;23.92;;;22.00;60.20;;;;;;5066111;28;20101;-67
2022/06/04 08:03:27;;;;;;;35.15;23.70;;;22.00;60.20;;;;;;5063914;28;20075;-68
2022/06/04 08:05:53;;;;;;;37.42;23.20;;;22.00;60.10;;;;;;5065735;28;20040;-67
2022/06/04 08:08:18;;;;;;;36.38;24.35;;;22.10;60.10;;;;;;5065517;28;20020;-67
2022/06/04 08:10:48;;;;;;;35.17;23.27;;;22.00;60.00;;;;;;5065354;28;20070;-67
2022/06/04 08:13:16;;;;;;;36.95;24.25;;;22.10;60.10;;;;;;5068801;28;20040;-67
2022/06/04 08:15:42;;;;;;;31.25;22.35;;;22.10;60.00;;;;;;5066708;28;20059;-67
2022/06/04 08:18:08;;;;;;;33.90;21.90;;;22.10;59.90;;;;;;5064848;28;20404;-67
2022/06/04 08:20:34;;;;;;;34.83;22.25;;;22.10;59.90;;;;;;5066576;28;20086;-67
2022/06/04 08:23:00;;;;;;;34.03;23.17;;;22.10;59.80;;;;;;5068384;28;20028;-67
2022/06/04 08:25:25;;;;;;;32.33;21.90;;;22.20;59.80;;;;;;5066114;28;20052;-68
2022/06/04 08:27:51;;;;;;;36.75;23.63;;;22.20;59.90;;;;;;5067246;28;20020;-67
2022/06/04 08:30:17;;;;;;;32.63;22.33;;;22.20;59.90;;;;;;5064718;28;20064;-67
2022/06/04 08:32:43;;;;;;;35.00;22.35;;;22.20;59.90;;;;;;5066354;28;20035;-67
2022/06/04 08:35:09;;;;;;;35.53;22.50;;;22.20;60.00;;;;;;5066466;28;20119;-67
2022/06/04 08:37:35;;;;;;;31.13;22.35;;;22.20;60.00;;;;;;5066236;28;20104;-67
2022/06/04 08:40:01;;;;;;;31.58;21.65;;;22.10;59.90;;;;;;5067999;28;20036;-67
2022/06/04 08:42:38;;;;;;;30.40;22.05;;;22.20;60.00;;;;;;5062666;28;20503;-67
2022/06/04 08:45:03;;;;;;;31.92;21.08;;;22.10;59.90;;;;;;5065344;28;20346;-67
2022/06/04 08:47:39;;;;;;;29.85;21.75;;;22.20;60.00;;;;;;5066231;28;20028;-67
2022/06/04 08:50:11;;;;;;;30.77;21.30;;;22.20;60.30;;;;;;5065067;28;20044;-67
2022/06/04 08:52:49;;;;;;;30.10;21.23;;;22.20;60.00;;;;;;5065124;28;20075;-67
2022/06/04 08:58:23;;;;;;;31.63;20.80;;;22.20;60.10;;;;;;5066068;28;20165;-67
2022/06/04 09:00:55;;;;;;;28.73;20.13;;;22.10;60.00;;;;;;5064409;28;20104;-67
2022/06/04 09:03:38;;;;;;;30.55;20.90;;;22.10;60.00;;;;;;5064648;28;20063;-67
2022/06/04 09:06:33;;;;;;;31.05;21.38;;;22.10;60.10;;;;;;5054643;28;20051;-67
2022/06/04 09:09:21;;;;;;;28.13;20.15;;;22.20;60.20;;;;;;5023561;28;20528;-67
2022/06/04 09:11:55;;;;;;;28.85;20.20;;;22.20;60.10;;;;;;5004728;28;20042;-67
2022/06/04 09:14:34;;;;;;;;;;;22.10;60.10;;;;;;5025643;28;20043;-67
2022/06/04 09:17:09;;;;;;;31.05;20.42;;;22.20;60.10;;;;;;5022753;28;19909;-67
2022/06/04 09:19:36;;;;;;;30.52;21.30;;;22.10;60.00;;;;;;5021602;28;20197;-67
2022/06/04 09:22:03;;;;;;;33.13;20.55;;;22.20;60.10;;;;;;5022871;28;20095;-67
2022/06/04 09:24:30;;;;;;;31.63;20.15;;;22.20;60.20;;;;;;5023399;28;20151;-67
2022/06/04 09:27:04;;;;;;;34.40;20.05;;;22.20;60.20;;;;;;5008458;28;20041;-67
2022/06/04 09:29:49;;;;;;;27.80;19.23;;;22.20;60.30;;;;;;5024394;28;20084;-67
2022/06/04 09:32:46;;;;;;;28.13;19.90;;;22.30;60.20;;;;;;5016876;28;20061;-68
2022/06/04 09:35:15;;;;;;;29.35;19.38;;;22.30;60.20;;;;;;5019586;28;20037;-68
2022/06/04 09:37:45;;;;;;;29.45;19.15;;;22.30;60.30;;;;;;5005764;28;21711;-67
2022/06/04 09:40:26;;;;;;;28.98;19.42;;;22.30;59.90;;;;;;5021514;28;20477;-67
2022/06/04 09:42:51;;;;;;;33.08;19.05;;;22.40;59.90;;;;;;5023477;28;20025;-67
2022/06/04 09:45:26;;;;;;;31.75;19.60;;;22.50;60.50;;;;;;5039909;28;20116;-67
2022/06/04 09:47:54;;;;;;;32.10;19.55;;;22.50;60.60;;;;;;5060517;28;20374;-66
2022/06/04 09:50:34;;;;;;;31.98;19.73;;;22.50;60.80;;;;;;5061366;28;20039;-67
2022/06/04 09:53:12;;;;;;;32.97;20.13;;;22.50;60.80;;;;;;5045510;28;20071;-66
2022/06/04 09:55:38;;;;;;;29.42;18.27;;;22.50;60.80;;;;;;5061434;28;20107;-66
2022/06/04 09:58:32;;;;;;;28.45;18.17;;;22.50;61.70;;;;;;5079397;28;20052;-68
2022/06/04 10:01:07;;;;;;;28.05;17.25;;;22.50;62.50;;;;;;5062845;28;20108;-68
2022/06/04 10:03:36;;;;;;;27.95;16.77;;;22.50;63.80;;;;;;5063491;28;20028;-68
2022/06/04 10:06:09;;;;;;;26.63;15.60;;;22.50;62.80;;;;;;5062039;28;20025;-68
2022/06/04 10:11:21;;;;;;;26.92;16.60;;;22.60;64.60;;;;;;5063060;28;20071;-66
2022/06/04 10:13:49;;;;;;;33.95;15.63;;;22.60;66.20;;;;;;5062845;28;20485;-74
2022/06/04 10:16:16;;;;;;;27.50;16.23;;;22.60;64.80;;;;;;5062999;28;20043;-66
2022/06/04 10:19:13;;;;;;;26.80;14.20;;;22.60;65.00;;;;;;5063840;28;20058;-67
2022/06/04 10:21:45;;;;;;;30.23;17.25;;;22.60;63.90;;;;;;5062330;28;20469;-67
2022/06/04 10:24:21;;;;;;;30.67;15.90;;;22.50;64.70;;;;;;5061038;28;20024;-68
2022/06/04 10:27:22;;;;;;;32.70;17.65;;;22.50;64.80;;;;;;5062260;28;20099;-67
2022/06/04 10:30:13;;;;;;;28.88;15.45;;;22.50;65.50;;;;;;5062028;28;20035;-67
2022/06/04 10:33:07;;;;;;;30.17;17.70;;;22.50;65.00;;;;;;5035090;28;20040;-68
2022/06/04 10:35:43;;;;;;;28.58;17.27;;;22.50;64.80;;;;;;5057763;28;20046;-67
2022/06/04 10:38:20;;;;;;;31.83;18.63;;;22.50;65.90;;;;;;5045359;28;20587;-67
2022/06/04 10:41:15;;;;;;;27.60;16.48;;;22.50;66.10;;;;;;5059456;28;20559;-67
2022/06/04 10:43:50;;;;;;;26.98;16.13;;;22.50;65.40;;;;;;5060986;28;20036;-69
2022/06/04 10:46:22;;;;;;;32.15;17.20;;;22.50;65.70;;;;;;5062215;28;20048;-67
2022/06/04 10:49:11;;;;;;;33.15;18.15;;;22.50;65.00;;;;;;5045324;28;20056;-67
2022/06/04 10:51:51;;;;;;;30.27;17.67;;;22.50;65.40;;;;;;5062286;28;20028;-67
2022/06/04 10:54:39;;;;;;;33.13;19.55;;;22.50;65.30;;;;;;5058782;28;20098;-68
2022/06/04 10:57:09;;;;;;;29.88;15.68;;;22.50;65.60;;;;;;5061602;28;20033;-68
2022/06/04 10:59:58;;;;;;;32.03;17.00;;;22.50;65.50;;;;;;5060782;28;20386;-67
2022/06/04 11:02:47;;;;;;;27.48;16.60;;;22.50;65.50;;;;;;5060504;28;20491;-67
2022/06/04 11:05:20;;;;;;;25.65;15.60;;;22.50;66.00;;;;;;5061288;28;20421;-67
2022/06/04 11:07:57;;;;;;;29.10;16.17;;;22.50;65.80;;;;;;5061158;28;20040;-67
2022/06/04 11:10:31;;;;;;;28.23;16.15;;;22.50;65.70;;;;;;5044509;28;20562;-67
2022/06/04 11:13:22;;;;;;;32.00;16.33;;;22.60;65.80;;;;;;5059059;28;20536;-66
2022/06/04 11:15:56;;;;;;;30.75;17.20;;;22.60;66.10;;;;;;5043211;28;20033;-67
2022/06/04 11:18:40;;;;;;;26.83;15.70;;;22.50;66.00;;;;;;5042882;28;20033;-66
2022/06/04 11:21:15;;;;;;;25.95;15.05;;;22.60;66.40;;;;;;5060158;28;20036;-67
2022/06/04 11:24:19;;;;;;;23.38;14.50;;;22.60;65.70;;;;;;5061715;28;20037;-67
2022/06/04 11:27:21;;;;;;;25.25;14.80;;;22.60;65.30;;;;;;5059636;28;20631;-67
2022/06/04 11:29:49;;;;;;;26.33;14.45;;;22.60;66.10;;;;;;5043886;28;20047;-67
2022/06/04 11:32:22;;;;;;;26.95;15.57;;;22.60;65.50;;;;;;5044809;28;20070;-66
2022/06/04 11:35:08;;;;;;;23.45;14.88;;;22.60;66.30;;;;;;5059089;28;20040;-67
2022/06/04 11:37:55;;;;;;;22.95;12.80;;;22.70;66.10;;;;;;5060272;28;20511;-65
2022/06/04 11:40:51;;;;;;;24.13;13.48;;;22.70;66.00;;;;;;5061341;28;20043;-67
2022/06/04 11:43:16;;;;;;;22.75;12.38;;;22.80;65.50;;;;;;5064830;28;20086;-66
2022/06/04 11:46:04;;;;;;;22.58;13.13;;;22.80;65.30;;;;;;5064789;28;20437;-66
2022/06/04 11:48:29;;;;;;;23.77;12.27;;;22.90;65.20;;;;;;5060588;28;20159;-66
2022/06/04 11:51:31;;;;;;;24.67;11.70;;;22.90;64.80;;;;;;5064011;28;20155;-66
2022/06/04 11:54:14;;;;;;;25.50;12.40;;;22.90;64.90;;;;;;5066638;28;20037;-66
2022/06/04 11:57:15;;;;;;;21.63;11.52;;;22.90;64.60;;;;;;5065573;28;20055;-67
2022/06/04 12:00:13;;;;;;;23.98;10.70;;;22.90;64.50;;;;;;5063037;28;20043;-66
2022/06/04 12:02:54;;;;;;;25.92;10.93;;;23.00;64.50;;;;;;5060648;28;20041;-66
2022/06/04 12:05:25;;;;;;;19.50;10.88;;;23.00;64.50;;;;;;5043518;28;20028;-66
2022/06/04 12:07:53;;;;;;;17.98;10.32;;;23.00;64.50;;;;;;5061713;28;20481;-66
2022/06/04 12:10:43;;;;;;;23.60;10.73;;;23.00;64.10;;;;;;5046412;28;20582;-66
2022/06/04 12:13:15;;;;;;;19.85;10.10;;;23.00;64.10;;;;;;5063100;28;20330;-66
2022/06/04 12:15:49;;;;;;;21.58;10.52;;;23.00;63.70;;;;;;5047199;28;20370;-66
2022/06/04 12:18:28;;;;;;;20.38;10.45;;;23.10;63.80;;;;;;5060867;28;20398;-66
2022/06/04 12:26:37;;;;;;;19.27;10.05;;;23.10;63.10;;;;;;5064117;28;20036;-66
2022/06/04 12:29:22;;;;;;;17.67;10.02;;;23.10;63.10;;;;;;5065012;28;20115;-66
2022/06/04 12:31:54;;;;;;;;;;;23.20;63.20;;;;;;5062645;28;20052;-66
2022/06/04 12:34:33;;;;;;;17.42;9.88;;;23.20;62.90;;;;;;5060075;28;19924;-66
2022/06/04 12:36:59;;;;;;;19.15;10.07;;;23.20;62.80;;;;;;5067082;28;20020;-66
2022/06/04 12:39:40;;;;;;;19.75;10.90;;;23.20;63.00;;;;;;5066414;28;20060;-66
2022/06/04 12:42:18;;;;;;;23.98;10.82;;;23.30;63.10;;;;;;5065427;28;20032;-66
2022/06/04 12:44:58;;;;;;;20.55;10.00;;;23.30;63.00;;;;;;5064881;28;20119;-66
2022/06/04 12:47:29;;;;;;;18.85;9.50;;;23.30;62.70;;;;;;5060806;28;20028;-66
2022/06/04 12:50:06;;;;;;;18.55;9.48;;;23.30;62.50;;;;;;5065879;28;20098;-66
2022/06/04 12:52:51;;;;;;;21.27;10.50;;;23.30;62.40;;;;;;5065376;28;20056;-67
2022/06/04 12:55:17;;;;;;;;;;;23.30;62.60;;;;;;5066880;28;20135;-67
2022/06/04 12:57:53;;;;;;;19.85;10.35;;;23.30;62.60;;;;;;5064981;28;20069;-66
2022/06/04 13:00:25;;;;;;;15.68;9.50;;;23.30;62.40;;;;;;5063831;28;20016;-66
2022/06/04 13:02:59;;;;;;;18.55;9.40;;;23.30;62.40;;;;;;5063844;28;20040;-67
2022/06/04 13:05:27;;;;;;;16.20;8.90;;;23.30;62.30;;;;;;5063775;28;20030;-66
2022/06/04 13:08:05;;;;;;;14.88;9.38;;;23.40;62.20;;;;;;5065251;28;20412;-67
2022/06/04 13:11:09;;;;;;;17.95;9.55;;;23.40;62.10;;;;;;5064927;28;20025;-66